Time;durP1;ratioP1;P1;durP2;ratioP2;P2;SDS_P1;SDS_P2;PMS_P1;PMS_P2;Temp;Humidity;BMP_temperature;BMP_pressure;BME280_temperature;BME280_humidity;BME280_pressure;Samples;Min_cycle;Max_cycle;Signal;HPM_P1;HPM_P2
2022/09/11 00:00:38;;;;;;;13.65;7.65;;;;;;;19.68;100.00;94587.56;5152154;27;20642;-74
2022/09/11 00:03:06;;;;;;;8.73;7.65;;;;;;;19.44;100.00;94587.47;5145483;27;20194;-73
2022/09/11 00:05:38;;;;;;;9.95;7.85;;;;;;;19.28;100.00;94573.53;5145013;27;20559;-73
2022/09/11 00:08:06;;;;;;;11.27;8.50;;;;;;;19.19;100.00;94583.09;5152371;27;20226;-74
2022/09/11 00:10:36;;;;;;;9.82;8.18;;;;;;;19.18;100.00;94584.16;5152659;27;20275;-73
2022/09/11 00:13:04;;;;;;;15.20;9.00;;;;;;;19.13;100.00;94580.78;5152596;27;20214;-74
2022/09/11 00:15:31;;;;;;;12.43;8.85;;;;;;;19.07;100.00;94574.75;5151935;27;20218;-74
2022/09/11 00:17:57;;;;;;;14.85;9.40;;;;;;;19.05;100.00;94576.06;5145856;27;20210;-74
2022/09/11 00:20:26;;;;;;;17.65;12.55;;;;;;;18.99;100.00;94574.53;5152389;27;20407;-74
2022/09/11 00:22:53;;;;;;;25.67;15.70;;;;;;;18.96;100.00;94577.72;5145244;27;20254;-74
2022/09/11 00:25:20;;;;;;;19.45;12.10;;;;;;;18.99;100.00;94577.16;5152361;27;20270;-74
2022/09/11 00:27:49;;;;;;;16.58;10.75;;;;;;;18.95;100.00;94584.03;5151854;27;20206;-75
2022/09/11 00:30:15;;;;;;;16.13;10.15;;;;;;;18.89;100.00;94583.25;5151989;27;20221;-75
2022/09/11 00:32:42;;;;;;;13.57;9.65;;;;;;;18.88;100.00;94588.78;5152118;27;20583;-75
2022/09/11 00:35:09;;;;;;;14.20;9.43;;;;;;;18.78;100.00;94583.59;5151763;27;20198;-74
2022/09/11 00:37:38;;;;;;;10.45;8.98;;;;;;;18.76;100.00;94589.09;5152277;27;20243;-75
2022/09/11 00:40:05;;;;;;;12.50;8.65;;;;;;;18.88;100.00;94581.69;5152309;27;20199;-75
2022/09/11 00:42:32;;;;;;;12.07;8.73;;;;;;;19.12;100.00;94584.47;5151935;27;20198;-74
2022/09/11 00:45:03;;;;;;;15.82;8.10;;;;;;;19.25;100.00;94583.84;5151626;27;20509;-74
2022/09/11 00:47:31;;;;;;;10.52;8.65;;;;;;;19.15;100.00;94583.91;5149112;27;20205;-74
2022/09/11 00:50:07;;;;;;;10.13;8.27;;;;;;;18.72;100.00;94569.66;5152118;27;20282;-75
2022/09/11 00:52:38;;;;;;;10.77;8.85;;;;;;;18.49;100.00;94578.16;5151778;27;20229;-74
2022/09/11 00:55:11;;;;;;;15.13;8.57;;;;;;;18.37;100.00;94582.91;5152185;27;20229;-74
2022/09/11 00:57:44;;;;;;;11.23;8.30;;;;;;;18.36;100.00;94581.31;5151915;27;20195;-73
2022/09/11 01:00:12;;;;;;;12.50;9.00;;;;;;;18.27;100.00;94582.94;5152304;27;20612;-73
2022/09/11 01:02:42;;;;;;;12.03;9.00;;;;;;;18.17;100.00;94575.84;5152500;27;20203;-74
2022/09/11 01:05:10;;;;;;;12.67;9.67;;;;;;;18.15;100.00;94576.09;5151298;27;20759;-74
2022/09/11 01:07:38;;;;;;;14.53;8.90;;;;;;;18.03;100.00;94577.47;5152164;27;20670;-73
2022/09/11 01:10:09;;;;;;;11.77;9.40;;;;;;;17.91;100.00;94576.94;5151657;27;20745;-75
2022/09/11 01:12:44;;;;;;;11.07;9.40;;;;;;;17.91;100.00;94574.31;5152267;27;20202;-74
2022/09/11 01:15:18;;;;;;;11.73;9.43;;;;;;;17.74;100.00;94566.72;5150199;27;20221;-75
2022/09/11 01:17:55;;;;;;;11.33;8.90;;;;;;;17.77;100.00;94579.34;5143715;27;20198;-74
2022/09/11 01:20:28;;;;;;;12.87;8.30;;;;;;;17.80;100.00;94580.66;5155623;27;20675;-75
2022/09/11 01:23:15;;;;;;;11.50;8.93;;;;;;;17.77;100.00;94571.44;5156340;27;20198;-74
2022/09/11 01:26:13;;;;;;;12.47;9.20;;;;;;;17.90;100.00;94584.03;5154010;27;20247;-74
2022/09/11 01:28:49;;;;;;;14.60;8.87;;;;;;;17.90;100.00;94578.00;5154698;27;20672;-75
2022/09/11 01:31:23;;;;;;;12.77;9.10;;;;;;;18.01;100.00;94582.19;5155237;27;20194;-75
2022/09/11 01:33:58;;;;;;;18.48;9.70;;;;;;;18.07;100.00;94581.91;5143923;27;20266;-75
2022/09/11 01:36:29;;;;;;;13.10;8.77;;;;;;;18.11;100.00;94580.34;5155371;27;20201;-75
2022/09/11 01:38:59;;;;;;;12.27;8.97;;;;;;;18.15;100.00;94572.72;5155310;27;20770;-74
2022/09/11 01:41:30;;;;;;;9.48;8.07;;;;;;;18.22;100.00;94567.94;5154443;27;20199;-75
2022/09/11 01:44:03;;;;;;;10.13;8.80;;;;;;;18.11;100.00;94564.56;5155760;27;20198;-76
2022/09/11 01:46:34;;;;;;;8.82;7.88;;;;;;;18.06;100.00;94566.41;5155359;27;20222;-76
2022/09/11 01:49:08;;;;;;;13.00;8.50;;;;;;;18.06;100.00;94551.41;5150949;27;20230;-77
2022/09/11 01:51:37;;;;;;;11.30;8.20;;;;;;;18.19;100.00;94554.53;5154555;27;20667;-76
2022/09/11 01:54:09;;;;;;;12.13;8.25;;;;;;;18.15;100.00;94555.06;5155323;27;20592;-76
2022/09/11 01:56:41;;;;;;;12.18;8.30;;;;;;;18.18;100.00;94550.34;5155364;27;20285;-75
2022/09/11 01:59:14;;;;;;;9.83;7.87;;;;;;;18.24;100.00;94547.41;5154870;27;20934;-77
2022/09/11 02:01:50;;;;;;;12.30;8.05;;;;;;;18.26;100.00;94550.56;5155168;27;20206;-76
2022/09/11 02:04:21;;;;;;;13.10;7.88;;;;;;;18.27;100.00;94549.50;5154925;27;20190;-75
2022/09/11 02:06:58;;;;;;;13.80;8.27;;;;;;;18.29;100.00;94547.41;5154615;27;20198;-75
2022/09/11 02:09:31;;;;;;;10.07;8.30;;;;;;;18.36;100.00;94542.63;5155142;27;20621;-74
2022/09/11 02:12:02;;;;;;;12.57;7.65;;;;;;;18.33;100.00;94540.53;5154716;27;20595;-74
2022/09/11 02:14:39;;;;;;;12.80;8.05;;;;;;;18.40;100.00;94541.06;5154438;27;20622;-74
2022/09/11 02:17:15;;;;;;;11.88;7.70;;;;;;;18.37;100.00;94543.44;5150414;27;20683;-74
2022/09/11 02:19:42;;;;;;;10.80;8.15;;;;;;;18.39;100.00;94534.22;5154949;27;20198;-73
2022/09/11 02:22:09;;;;;;;10.75;8.65;;;;;;;18.45;100.00;94534.97;5141372;27;20202;-74
2022/09/11 02:24:36;;;;;;;11.25;8.10;;;;;;;18.46;100.00;94539.97;5154072;27;20206;-74
2022/09/11 02:27:06;;;;;;;9.15;7.80;;;;;;;18.37;100.00;94536.31;5154464;27;20205;-73
2022/09/11 02:29:35;;;;;;;10.88;7.55;;;;;;;18.34;100.00;94536.88;5154760;27;20202;-74
2022/09/11 02:32:03;;;;;;;10.52;7.20;;;;;;;18.36;100.00;94540.00;5154824;27;20195;-73
2022/09/11 02:34:33;;;;;;;11.07;7.40;;;;;;;18.31;100.00;94541.88;5154232;27;20599;-73
2022/09/11 02:37:12;;;;;;;8.88;7.20;;;;;;;18.28;100.00;94547.66;5142210;27;20329;-74
2022/09/11 02:40:05;;;;;;;10.68;7.75;;;;;;;18.17;100.00;94536.38;5152040;27;20202;-74
2022/09/11 02:42:45;;;;;;;15.02;8.00;;;;;;;18.07;100.00;94531.13;5152797;27;20198;-74
2022/09/11 02:45:25;;;;;;;11.63;7.57;;;;;;;18.14;100.00;94534.28;5140099;27;20187;-74
2022/09/11 02:48:00;;;;;;;13.63;7.82;;;;;;;18.12;100.00;94533.78;5151857;27;20237;-74
2022/09/11 02:50:33;;;;;;;10.38;7.93;;;;;;;18.15;100.00;94535.88;5153933;27;20190;-74
2022/09/11 02:53:06;;;;;;;10.07;8.82;;;;;;;18.22;100.00;94531.09;5154115;27;20213;-73
2022/09/11 02:55:48;;;;;;;13.10;7.88;;;;;;;18.29;100.00;94534.25;5153975;27;20661;-74
2022/09/11 02:58:21;;;;;;;10.87;7.73;;;;;;;18.22;100.00;94541.63;5153925;27;20261;-74
2022/09/11 03:00:50;;;;;;;9.00;8.10;;;;;;;18.19;100.00;94533.47;5153848;27;20203;-73
2022/09/11 03:03:19;;;;;;;10.77;7.88;;;;;;;18.18;100.00;94537.19;5153153;27;20202;-73
2022/09/11 03:05:46;;;;;;;9.48;7.65;;;;;;;18.14;100.00;94536.94;5153816;27;20674;-74
2022/09/11 03:08:15;;;;;;;15.17;9.07;;;;;;;18.16;100.00;94540.06;5153400;27;20206;-74
2022/09/11 03:10:45;;;;;;;9.13;8.07;;;;;;;18.03;100.00;94543.28;5153638;27;20285;-73
2022/09/11 03:13:13;;;;;;;9.33;8.10;;;;;;;17.89;100.00;94540.38;5153464;27;20199;-74
2022/09/11 03:15:42;;;;;;;11.30;8.77;;;;;;;17.87;100.00;94542.50;5153206;27;20229;-73
2022/09/11 03:18:14;;;;;;;11.17;8.70;;;;;;;17.80;100.00;94546.47;5148223;27;20259;-74
2022/09/11 03:20:45;;;;;;;10.87;8.53;;;;;;;17.79;100.00;94544.88;5153919;27;20190;-73
2022/09/11 03:23:12;;;;;;;9.53;8.27;;;;;;;17.60;100.00;94538.59;5153530;27;20563;-74
2022/09/11 03:25:40;;;;;;;12.90;8.47;;;;;;;17.74;100.00;94553.56;5153686;27;20195;-74
2022/09/11 03:28:07;;;;;;;11.77;8.97;;;;;;;17.84;100.00;94548.28;5153524;27;20206;-76
2022/09/11 03:30:34;;;;;;;10.73;8.40;;;;;;;17.90;100.00;94551.69;5153585;27;20195;-76
2022/09/11 03:33:01;;;;;;;17.07;9.23;;;;;;;17.91;100.00;94554.06;5153359;27;20206;-77
2022/09/11 03:35:29;;;;;;;12.40;8.67;;;;;;;17.93;100.00;94567.75;5145112;27;20670;-76
2022/09/11 03:37:56;;;;;;;10.03;8.20;;;;;;;17.87;100.00;94560.91;5152870;27;20202;-76
2022/09/11 03:40:23;;;;;;;10.90;8.90;;;;;;;17.83;100.00;94562.50;5153179;27;20735;-78
2022/09/11 03:42:50;;;;;;;17.57;9.40;;;;;;;17.66;100.00;94569.09;5151521;27;20199;-77
2022/09/11 03:45:17;;;;;;;15.07;9.17;;;;;;;17.57;100.00;94566.97;5147808;27;20540;-77
2022/09/11 03:47:44;;;;;;;10.43;8.80;;;;;;;17.48;100.00;94573.78;5151752;27;20203;-77
2022/09/11 03:50:11;;;;;;;11.33;9.53;;;;;;;17.43;100.00;94575.63;5153088;27;20201;-78
2022/09/11 03:52:39;;;;;;;11.27;9.07;;;;;;;17.43;100.00;94573.00;5152706;27;20234;-78
2022/09/11 03:55:07;;;;;;;14.13;8.73;;;;;;;17.45;100.00;94569.06;5152702;27;20226;-73
2022/09/11 03:57:34;;;;;;;13.90;9.07;;;;;;;17.46;100.00;94572.47;5152604;27;20677;-74
2022/09/11 04:00:01;;;;;;;11.70;9.47;;;;;;;17.46;100.00;94570.63;5152502;27;20198;-74
2022/09/11 04:02:28;;;;;;;15.53;9.43;;;;;;;17.52;100.00;94572.19;5152476;27;20199;-74
2022/09/11 04:04:55;;;;;;;15.67;9.17;;;;;;;17.43;100.00;94563.25;5152038;27;20195;-73
2022/09/11 04:07:22;;;;;;;12.20;9.23;;;;;;;17.37;100.00;94566.16;5152522;27;20613;-74
2022/09/11 04:09:50;;;;;;;13.87;10.00;;;;;;;17.25;100.00;94576.13;5152759;27;20205;-74
2022/09/11 04:12:18;;;;;;;15.67;10.37;;;;;;;17.10;100.00;94566.38;5152498;27;20285;-73
2022/09/11 04:14:45;;;;;;;14.13;10.00;;;;;;;17.17;100.00;94581.91;5152267;27;20729;-75
2022/09/11 04:17:11;;;;;;;14.93;10.30;;;;;;;17.19;100.00;94579.78;5147903;27;20544;-74
2022/09/11 04:19:38;;;;;;;16.43;10.93;;;;;;;17.17;100.00;94587.16;5152125;27;20209;-74
2022/09/11 04:22:05;;;;;;;15.80;11.17;;;;;;;17.14;100.00;94579.78;5152171;27;20230;-74
2022/09/11 04:24:32;;;;;;;13.37;10.00;;;;;;;17.08;100.00;94580.81;5152301;27;20203;-74
2022/09/11 04:27:00;;;;;;;12.67;9.90;;;;;;;17.03;100.00;94579.75;5151927;27;20198;-73
2022/09/11 04:29:27;;;;;;;13.80;10.97;;;;;;;17.04;100.00;94575.28;5152706;27;20214;-73
2022/09/11 04:31:54;;;;;;;18.27;10.10;;;;;;;17.03;100.00;94581.59;5152175;27;20207;-74
2022/09/11 04:34:22;;;;;;;18.07;10.47;;;;;;;17.06;100.00;94582.91;5151511;27;20226;-73
2022/09/11 04:36:49;;;;;;;14.53;10.10;;;;;;;17.08;100.00;94580.81;5152505;27;20210;-74
2022/09/11 04:39:16;;;;;;;16.83;10.80;;;;;;;17.07;100.00;94582.66;5145414;27;20225;-75
2022/09/11 04:41:44;;;;;;;12.47;10.03;;;;;;;16.97;100.00;94578.16;5145569;27;20213;-74
2022/09/11 04:44:12;;;;;;;14.23;11.20;;;;;;;16.87;100.00;94590.47;5144260;27;20226;-74
2022/09/11 04:46:39;;;;;;;15.83;11.00;;;;;;;16.82;100.00;94590.47;5132746;27;20204;-73
2022/09/11 04:49:09;;;;;;;22.90;11.73;;;;;;;16.88;100.00;94590.22;5138261;27;20650;-73
2022/09/11 04:51:37;;;;;;;19.13;11.43;;;;;;;16.90;100.00;94593.38;5151884;27;20233;-77
2022/09/11 04:54:05;;;;;;;21.60;11.10;;;;;;;17.03;100.00;94584.22;5134895;27;20658;-77
2022/09/11 04:56:36;;;;;;;16.27;11.40;;;;;;;17.00;100.00;94582.88;5151656;27;20203;-77
2022/09/11 04:59:07;;;;;;;16.40;11.90;;;;;;;17.08;100.00;94586.06;5139242;27;20199;-78
2022/09/11 05:01:38;;;;;;;15.13;11.10;;;;;;;16.96;100.00;94596.81;5151794;27;20194;-77
2022/09/11 05:04:05;;;;;;;13.90;11.27;;;;;;;16.89;100.00;94591.00;5151806;27;20226;-76
2022/09/11 05:06:32;;;;;;;15.27;10.80;;;;;;;16.85;100.00;94587.34;5150286;27;20191;-77
2022/09/11 05:09:02;;;;;;;15.83;11.17;;;;;;;16.72;100.00;94587.78;5139716;27;20196;-77
2022/09/11 05:11:30;;;;;;;20.50;11.60;;;;;;;16.62;100.00;94596.44;5151644;27;20206;-76
2022/09/11 05:13:58;;;;;;;17.03;12.80;;;;;;;16.55;100.00;94587.19;5151507;27;20207;-78
2022/09/11 05:16:27;;;;;;;15.77;12.10;;;;;;;16.47;100.00;94591.09;5151837;27;20230;-81
2022/09/11 05:18:56;;;;;;;17.47;13.93;;;;;;;16.54;100.00;94589.03;5147927;27;20675;-78
2022/09/11 05:21:25;;;;;;;21.23;13.47;;;;;;;16.56;100.00;94589.59;5150979;27;20207;-77
2022/09/11 05:23:53;;;;;;;19.30;13.10;;;;;;;16.51;100.00;94579.03;5150731;27;20203;-77
2022/09/11 05:26:21;;;;;;;18.97;13.70;;;;;;;16.53;100.00;94584.03;5151857;27;20203;-78
2022/09/11 05:28:53;;;;;;;22.93;14.30;;;;;;;16.75;100.00;94588.06;5151508;27;20203;-78
2022/09/11 05:31:20;;;;;;;17.13;13.90;;;;;;;16.84;100.00;94589.16;5151661;27;20202;-78
2022/09/11 05:33:49;;;;;;;21.40;13.80;;;;;;;16.93;100.00;94585.00;5151609;27;20210;-77
2022/09/11 05:36:17;;;;;;;19.73;13.00;;;;;;;16.99;100.00;94580.53;5151120;27;20241;-77
2022/09/11 05:38:45;;;;;;;19.83;13.33;;;;;;;17.06;100.00;94580.28;5151435;27;20206;-76
2022/09/11 05:41:14;;;;;;;18.67;13.60;;;;;;;17.03;100.00;94581.59;5151785;27;20880;-77
2022/09/11 05:43:42;;;;;;;17.53;13.30;;;;;;;17.07;100.00;94579.22;5151113;27;20238;-76
2022/09/11 05:46:12;;;;;;;19.67;14.20;;;;;;;17.08;100.00;94571.13;5151433;27;20661;-75
2022/09/11 05:48:39;;;;;;;19.50;13.80;;;;;;;17.19;100.00;94572.69;5150848;27;20210;-77
2022/09/11 05:51:08;;;;;;;15.90;13.57;;;;;;;17.30;100.00;94584.00;5149751;27;20227;-77
2022/09/11 05:53:37;;;;;;;18.50;14.40;;;;;;;17.29;100.00;94590.28;5135874;27;20677;-77
2022/09/11 05:56:09;;;;;;;22.87;15.10;;;;;;;17.29;100.00;94585.84;5148097;27;20254;-76
2022/09/11 05:58:37;;;;;;;19.13;15.10;;;;;;;17.23;100.00;94576.38;5151684;27;20644;-77
2022/09/11 06:01:08;;;;;;;23.83;17.30;;;;;;;17.36;100.00;94588.22;5155255;27;20194;-77
2022/09/11 06:03:36;;;;;;;19.23;15.37;;;;;;;17.36;100.00;94583.75;5154730;27;20218;-77
2022/09/11 06:06:04;;;;;;;24.40;16.53;;;;;;;17.45;100.00;94586.66;5154333;27;20206;-76
2022/09/11 06:08:32;;;;;;;19.83;15.83;;;;;;;17.47;100.00;94595.84;5155047;27;20203;-76
2022/09/11 06:11:01;;;;;;;17.23;14.60;;;;;;;17.47;100.00;94580.09;5154665;27;20203;-75
2022/09/11 06:13:30;;;;;;;17.13;14.43;;;;;;;17.61;100.00;94595.34;5154476;27;20259;-77
2022/09/11 06:15:57;;;;;;;19.03;15.00;;;;;;;17.73;100.00;94590.63;5154681;27;20218;-78
2022/09/11 06:18:24;;;;;;;19.63;14.63;;;;;;;17.74;100.00;94592.22;5151450;27;20294;-77
2022/09/11 06:20:57;;;;;;;21.00;14.83;;;;;;;17.70;100.00;94604.28;5154583;27;20199;-77
2022/09/11 06:23:24;;;;;;;27.47;15.90;;;;;;;17.74;100.00;94603.53;5154478;27;20195;-77
2022/09/11 06:25:53;;;;;;;25.60;14.67;;;;;;;17.86;100.00;94600.63;5154596;27;20207;-77
2022/09/11 06:28:22;;;;;;;24.47;15.60;;;;;;;17.97;100.00;94605.63;5154602;27;20203;-77
2022/09/11 06:30:54;;;;;;;21.03;15.27;;;;;;;18.01;100.00;94603.22;5155001;27;20232;-77
2022/09/11 06:33:21;;;;;;;20.00;15.00;;;;;;;18.03;100.00;94604.56;5147422;27;20206;-73
2022/09/11 06:35:57;;;;;;;18.93;15.13;;;;;;;18.18;100.00;94602.97;5154689;27;20222;-73
2022/09/11 06:38:24;;;;;;;22.20;15.37;;;;;;;18.29;100.00;94607.13;5154119;27;20225;-74
2022/09/11 06:40:51;;;;;;;21.03;15.23;;;;;;;18.27;100.00;94610.03;5153588;27;20198;-74
2022/09/11 06:43:18;;;;;;;22.23;15.30;;;;;;;18.24;100.00;94613.19;5153864;27;20213;-73
2022/09/11 06:45:47;;;;;;;19.67;15.90;;;;;;;18.22;100.00;94611.88;5154274;27;20725;-73
2022/09/11 06:48:14;;;;;;;23.30;16.17;;;;;;;18.24;100.00;94618.44;5147253;27;20289;-73
2022/09/11 06:50:41;;;;;;;18.10;14.60;;;;;;;18.43;100.00;94616.06;5154270;27;20198;-73
2022/09/11 06:53:08;;;;;;;18.53;14.53;;;;;;;18.42;100.00;94615.25;5153758;27;20259;-73
2022/09/11 06:55:36;;;;;;;18.00;14.77;;;;;;;18.46;100.00;94611.06;5153895;27;20219;-73
2022/09/11 06:58:03;;;;;;;20.77;15.63;;;;;;;18.54;100.00;94617.63;5154007;27;20621;-73
2022/09/11 07:00:29;;;;;;;17.47;14.23;;;;;;;18.64;100.00;94621.00;5153977;27;20665;-73
2022/09/11 07:02:58;;;;;;;21.00;14.57;;;;;;;18.75;100.00;94615.72;5140490;27;20201;-73
2022/09/11 07:05:25;;;;;;;18.50;14.43;;;;;;;18.80;100.00;94613.84;5140105;27;20619;-73
2022/09/11 07:07:52;;;;;;;17.60;14.67;;;;;;;18.88;100.00;94618.56;5139989;27;20234;-73
2022/09/11 07:10:19;;;;;;;18.43;14.37;;;;;;;19.11;100.00;94615.28;5153659;27;20206;-73
2022/09/11 07:12:49;;;;;;;20.30;14.63;;;;;;;19.20;100.00;94612.88;5153616;27;20933;-73
2022/09/11 07:15:16;;;;;;;17.23;13.25;;;;;;;19.24;100.00;94619.19;5153637;27;20222;-73
2022/09/11 07:17:43;;;;;;;16.73;13.52;;;;;;;19.24;100.00;94619.97;5151016;27;20203;-74
2022/09/11 07:20:12;;;;;;;19.05;12.82;;;;;;;19.27;100.00;94616.78;5153886;27;20194;-74
2022/09/11 07:22:39;;;;;;;18.25;14.23;;;;;;;19.44;100.00;94613.03;5140082;27;20202;-74
2022/09/11 07:25:06;;;;;;;20.23;14.25;;;;;;;19.45;100.00;94619.88;5139907;27;20289;-74
2022/09/11 07:27:33;;;;;;;15.45;13.35;;;;;;;19.51;100.00;94613.53;5153371;27;20384;-74
2022/09/11 07:30:00;;;;;;;17.15;12.65;;;;;;;19.61;100.00;94611.59;5153527;27;20194;-74
2022/09/11 07:32:28;;;;;;;16.52;11.80;;;;;;;19.63;100.00;94616.56;5153880;27;20309;-74
2022/09/11 07:34:55;;;;;;;17.83;12.82;;;;;;;19.69;100.00;94599.66;5153045;27;20210;-73
2022/09/11 07:37:23;;;;;;;15.13;11.80;;;;;;;19.75;100.00;94596.72;5152740;27;20194;-73
2022/09/11 07:39:50;;;;;;;19.67;12.40;;;;;;;19.72;100.00;94599.09;5153576;27;20202;-73
2022/09/11 07:42:17;;;;;;;14.25;11.73;;;;;;;19.71;100.00;94598.31;5153072;27;20206;-74
2022/09/11 07:44:44;;;;;;;16.92;11.93;;;;;;;19.75;100.00;94599.34;5153088;27;20209;-75
2022/09/11 07:47:10;;;;;;;16.48;11.38;;;;;;;19.81;99.87;94602.72;5148114;27;20198;-73
2022/09/11 07:49:37;;;;;;;15.02;11.70;;;;;;;19.83;99.58;94600.59;5152436;27;20230;-76
2022/09/11 07:52:04;;;;;;;17.15;12.00;;;;;;;19.72;100.00;94601.75;5152890;27;20218;-76
2022/09/11 07:54:32;;;;;;;13.50;10.98;;;;;;;19.76;99.86;94610.69;5153191;27;20268;-76
2022/09/11 07:56:59;;;;;;;13.98;12.10;;;;;;;19.81;99.08;94605.38;5152401;27;20226;-75
2022/09/11 07:59:26;;;;;;;15.25;11.63;;;;;;;19.87;98.66;94600.84;5152369;27;20588;-74
2022/09/11 08:01:54;;;;;;;18.10;11.80;;;;;;;19.88;99.43;94592.66;5146897;27;20195;-75
2022/09/11 08:04:21;;;;;;;15.23;12.05;;;;;;;19.91;99.33;94589.47;5151175;27;20255;-74
2022/09/11 08:06:47;;;;;;;13.90;12.20;;;;;;;19.88;99.19;94582.09;5152531;27;20243;-74
2022/09/11 08:09:15;;;;;;;13.10;11.68;;;;;;;19.89;99.12;94582.88;5152408;27;20669;-74
2022/09/11 08:11:47;;;;;;;15.02;12.38;;;;;;;20.02;98.74;94582.25;5152460;27;20202;-74
2022/09/11 08:14:14;;;;;;;15.15;12.55;;;;;;;20.06;99.45;94585.88;5152870;27;20199;-76
2022/09/11 08:16:42;;;;;;;16.33;11.90;;;;;;;20.11;99.41;94577.94;5151514;27;20223;-79
2022/09/11 08:19:16;;;;;;;17.95;12.57;;;;;;;20.16;98.69;94578.69;5151646;27;20202;-76
2022/09/11 08:21:43;;;;;;;14.55;12.23;;;;;;;20.27;98.30;94577.53;5152285;27;20705;-77
2022/09/11 08:24:12;;;;;;;15.77;12.07;;;;;;;20.36;97.47;94570.56;5152261;27;20206;-74
2022/09/11 08:26:39;;;;;;;13.82;11.90;;;;;;;20.45;95.41;94575.25;5134843;27;20213;-76
2022/09/11 08:29:07;;;;;;;13.80;11.88;;;;;;;20.40;93.53;94577.94;5138824;27;20700;-75
2022/09/11 08:31:35;;;;;;;13.10;11.60;;;;;;;20.40;94.22;94578.72;5152189;27;20216;-75
2022/09/11 08:34:02;;;;;;;17.58;11.60;;;;;;;20.51;92.14;94574.91;5152234;27;20681;-74
2022/09/11 08:36:29;;;;;;;13.68;11.85;;;;;;;20.56;92.76;94577.47;5151879;27;20226;-74
2022/09/11 08:38:56;;;;;;;16.10;12.77;;;;;;;20.71;92.90;94579.16;5152362;27;20259;-77
2022/09/11 08:41:35;;;;;;;14.57;11.77;;;;;;;20.81;93.80;94571.91;5152179;27;20202;-75
2022/09/11 08:44:13;;;;;;;13.77;11.70;;;;;;;21.01;91.28;94578.00;5152032;27;20205;-74
2022/09/11 08:46:42;;;;;;;13.40;11.50;;;;;;;21.16;90.89;94575.16;5151534;27;20251;-73
2022/09/11 08:49:18;;;;;;;12.45;11.13;;;;;;;21.35;89.65;94576.78;5147928;27;20204;-77
2022/09/11 08:51:46;;;;;;;12.52;11.23;;;;;;;21.48;89.54;94573.38;5151813;27;20234;-74
2022/09/11 08:54:26;;;;;;;11.80;10.60;;;;;;;21.75;83.36;94566.63;5151976;27;20194;-73
2022/09/11 08:56:54;;;;;;;12.25;10.30;;;;;;;21.84;82.75;94572.84;5151599;27;20289;-77
2022/09/11 08:59:35;;;;;;;12.85;10.80;;;;;;;21.98;82.50;94566.53;5151858;27;20580;-78
2022/09/11 09:02:19;;;;;;;13.55;11.10;;;;;;;22.15;83.70;94567.84;5146895;27;20225;-74
2022/09/11 09:05:07;;;;;;;12.02;10.68;;;;;;;22.22;82.41;94565.59;5145445;27;20206;-77
2022/09/11 09:07:43;;;;;;;11.60;10.02;;;;;;;22.21;79.45;94569.31;5136157;27;20202;-75
2022/09/11 09:10:23;;;;;;;10.65;9.30;;;;;;;22.34;78.58;94560.59;5151769;27;20289;-76
2022/09/11 09:13:03;;;;;;;11.90;10.57;;;;;;;22.45;77.77;94552.16;5152150;27;20302;-74
2022/09/11 09:15:47;;;;;;;14.23;11.18;;;;;;;22.45;76.90;94551.41;5151734;27;20198;-73
2022/09/11 09:18:23;;;;;;;10.88;9.77;;;;;;;22.45;76.88;94551.41;5149737;27;20582;-74
2022/09/11 09:21:00;;;;;;;12.43;9.43;;;;;;;22.60;76.88;94556.38;5148157;27;20203;-74
2022/09/11 09:23:31;;;;;;;13.63;11.05;;;;;;;22.84;76.36;94550.91;5135545;27;20252;-74
2022/09/11 09:25:58;;;;;;;11.45;10.23;;;;;;;23.10;76.42;94550.06;5131569;27;20295;-73
2022/09/11 09:28:36;;;;;;;12.85;10.07;;;;;;;23.39;73.89;94548.94;5132870;27;20282;-78
2022/09/11 09:31:08;;;;;;;13.82;9.75;;;;;;;23.63;71.54;94557.41;5134572;27;20191;-73
2022/09/11 09:33:41;;;;;;;10.55;9.45;;;;;;;23.80;71.20;94546.91;5136230;27;20317;-74
2022/09/11 09:36:15;;;;;;;11.52;8.27;;;;;;;24.21;79.90;94539.50;5137519;27;20211;-73
2022/09/11 09:38:43;;;;;;;11.45;9.60;;;;;;;24.53;67.78;94540.25;5134175;27;20239;-72
2022/09/11 09:41:43;;;;;;;14.18;9.25;;;;;;;24.42;66.54;94534.44;5141387;27;20198;-72
2022/09/11 09:44:18;;;;;;;10.25;9.25;;;;;;;24.52;68.06;94536.03;5137220;27;20726;-73
2022/09/11 09:46:49;;;;;;;10.30;8.70;;;;;;;24.60;65.88;94538.72;5136745;27;20226;-74
2022/09/11 09:49:22;;;;;;;10.15;8.77;;;;;;;24.76;67.38;94531.88;5138175;27;20191;-73
2022/09/11 09:51:50;;;;;;;8.60;7.75;;;;;;;25.01;71.87;94533.06;5140135;27;20258;-73
2022/09/11 09:54:22;;;;;;;10.65;8.25;;;;;;;25.38;65.40;94537.78;5154809;27;20684;-73
2022/09/11 09:56:56;;;;;;;9.73;8.05;;;;;;;25.62;62.30;94536.53;5155305;27;20203;-74
2022/09/11 09:59:30;;;;;;;10.77;8.80;;;;;;;25.71;62.65;94534.66;5155444;27;20186;-73
2022/09/11 10:01:58;;;;;;;9.20;8.15;;;;;;;25.66;61.43;94527.59;5155102;27;20232;-73
2022/09/11 10:04:28;;;;;;;9.00;8.10;;;;;;;25.62;61.91;94528.56;5155147;27;20195;-73
2022/09/11 10:07:06;;;;;;;11.93;8.30;;;;;;;25.47;63.45;94523.69;5155334;27;20195;-73
2022/09/11 10:09:33;;;;;;;9.75;8.80;;;;;;;25.72;64.56;94520.22;5155057;27;20202;-71
2022/09/11 10:12:02;;;;;;;8.98;8.07;;;;;;;26.08;61.76;94512.66;5155202;27;20213;-73
2022/09/11 10:14:32;;;;;;;12.18;9.57;;;;;;;26.56;63.50;94516.88;5155152;27;20646;-73
2022/09/11 10:17:01;;;;;;;20.70;12.32;;;;;;;26.97;60.00;94522.31;5153730;27;20215;-73
2022/09/11 10:19:40;;;;;;;23.73;14.68;;;;;;;27.04;57.82;94525.28;5154928;27;20199;-75
2022/09/11 10:22:27;;;;;;;361.88;160.43;;;;;;;27.11;57.56;94512.19;5154607;27;20953;-75
2022/09/11 10:25:14;;;;;;;37.17;22.52;;;;;;;27.36;57.17;94519.19;5154963;27;20199;-76
2022/09/11 10:27:51;;;;;;;17.52;8.95;;;;;;;27.49;57.26;94515.53;5147711;27;20207;-75
2022/09/11 10:30:27;;;;;;;9.05;8.13;;;;;;;27.76;56.82;94513.41;5154636;27;20202;-76
2022/09/11 10:32:56;;;;;;;10.20;8.07;;;;;;;27.96;57.76;94518.72;5154569;27;20202;-76
2022/09/11 10:35:26;;;;;;;10.18;7.40;;;;;;;28.06;57.21;94514.84;5154203;27;20194;-74
2022/09/11 10:38:05;;;;;;;9.35;7.60;;;;;;;28.37;56.42;94514.34;5147326;27;20249;-75
2022/09/11 10:40:32;;;;;;;10.60;7.90;;;;;;;28.28;56.96;94508.31;5154326;27;20201;-75
2022/09/11 10:42:59;;;;;;;9.75;7.88;;;;;;;28.19;55.28;94510.31;5155035;27;20207;-75
2022/09/11 10:45:26;;;;;;;10.52;7.68;;;;;;;27.92;55.42;94509.78;5154104;27;20209;-81
2022/09/11 10:47:53;;;;;;;11.95;7.72;;;;;;;27.46;56.40;94513.50;5149855;27;20197;-76
2022/09/11 10:50:24;;;;;;;12.80;7.63;;;;;;;27.38;57.03;94508.22;5154710;27;20206;-77
2022/09/11 10:53:04;;;;;;;7.90;7.07;;;;;;;27.74;54.00;94510.25;5154536;27;20376;-79
2022/09/11 10:55:36;;;;;;;8.02;7.32;;;;;;;27.70;56.24;94509.38;5154391;27;20198;-77
2022/09/11 10:58:09;;;;;;;9.75;7.35;;;;;;;27.76;55.94;94511.53;5154727;27;20207;-74
2022/09/11 11:00:37;;;;;;;10.75;8.15;;;;;;;27.96;56.03;94499.22;5154497;27;20581;-74
2022/09/11 11:03:10;;;;;;;7.65;6.80;;;;;;;27.41;55.32;94502.22;5154116;27;20660;-75
2022/09/11 11:05:53;;;;;;;8.18;6.60;;;;;;;26.83;57.07;94489.78;5150112;27;20186;-76
2022/09/11 11:08:39;;;;;;;9.68;7.15;;;;;;;27.01;58.51;94496.56;5139264;27;20192;-78
2022/09/11 11:11:23;;;;;;;8.30;7.18;;;;;;;27.46;56.39;94494.03;5144354;27;20202;-74
2022/09/11 11:14:07;;;;;;;8.50;7.70;;;;;;;27.67;56.29;94492.13;5154181;27;20198;-77
2022/09/11 11:16:44;;;;;;;7.93;7.13;;;;;;;27.69;54.87;94494.44;5153584;27;20207;-77
2022/09/11 11:19:31;;;;;;;11.00;7.70;;;;;;;27.90;55.64;94485.28;5141368;27;20202;-75
2022/09/11 11:22:08;;;;;;;10.02;7.00;;;;;;;28.15;53.88;94481.56;5153869;27;20361;-77
2022/09/11 11:24:54;;;;;;;13.57;6.82;;;;;;;28.33;52.71;94482.16;5147226;27;20198;-80
2022/09/11 11:27:42;;;;;;;8.25;6.95;;;;;;;28.34;51.33;94466.88;5139642;27;20435;-80
2022/09/11 11:30:16;;;;;;;7.82;6.45;;;;;;;28.54;51.98;94452.63;5140689;27;20691;-80
2022/09/11 11:33:11;;;;;;;8.73;7.20;;;;;;;29.00;56.45;94456.69;5153336;27;20209;-80